Time;durP1;ratioP1;P1;durP2;ratioP2;P2;SDS_P1;SDS_P2;PMS_P1;PMS_P2;Temp;Humidity;BMP_temperature;BMP_pressure;BME280_temperature;BME280_humidity;BME280_pressure;Samples;Min_cycle;Max_cycle;Signal;HPM_P1;HPM_P2
2023/04/22 00:00:28;;;;;;;2.92;2.42;;;;;;;;;;5036360;28;20041;-57
2023/04/22 00:02:57;;;;;;;4.07;2.10;;;;;;;;;;5035980;28;20431;-57
2023/04/22 00:05:23;;;;;;;4.68;2.63;;;;;;;;;;5037587;28;20394;-57
2023/04/22 00:07:50;;;;;;;3.92;2.60;;;;;;;;;;5038619;28;20033;-57
2023/04/22 00:10:16;;;;;;;2.38;1.95;;;;;;;;;;5036940;28;20033;-58
2023/04/22 00:12:42;;;;;;;2.70;2.00;;;;;;;;;;5039090;28;20550;-58
2023/04/22 00:15:09;;;;;;;2.60;1.92;;;;;;;;;;5032688;28;20057;-58
2023/04/22 00:17:36;;;;;;;2.50;2.20;;;;;;;;;;5040747;28;20029;-58
2023/04/22 00:20:02;;;;;;;2.38;2.17;;;;;;;;;;5036800;28;20033;-58
2023/04/22 00:22:29;;;;;;;2.20;1.95;;;;;;;;;;5042282;28;20068;-58
2023/04/22 00:24:55;;;;;;;3.17;2.20;;;;;;;;;;5037513;28;20043;-58
2023/04/22 00:27:21;;;;;;;2.80;2.10;;;;;;;;;;5040521;28;20039;-57
2023/04/22 00:29:47;;;;;;;3.70;2.00;;;;;;;;;;5045404;28;20478;-57
2023/04/22 00:32:13;;;;;;;2.13;1.83;;;;;;;;;;5022890;28;20033;-57
2023/04/22 00:34:39;;;;;;;3.88;2.78;;;;;;;;;;5031490;28;20049;-57
2023/04/22 00:37:06;;;;;;;2.85;1.90;;;;;;;;;;5033912;28;20425;-57
2023/04/22 00:39:32;;;;;;;3.00;1.85;;;;;;;;;;5038581;28;20045;-58
2023/04/22 00:41:59;;;;;;;3.42;2.00;;;;;;;;;;5037770;28;20049;-58
2023/04/22 00:44:25;;;;;;;2.17;1.90;;;;;;;;;;5038049;28;20033;-57
2023/04/22 00:46:51;;;;;;;2.40;1.83;;;;;;;;;;5038058;28;20049;-57
2023/04/22 00:49:19;;;;;;;2.45;1.98;;;;;;;;;;5047482;28;20044;-57
2023/04/22 00:51:45;;;;;;;2.45;2.10;;;;;;;;;;5038365;28;20044;-58
2023/04/22 00:54:11;;;;;;;1.95;1.77;;;;;;;;;;5037437;28;20395;-58
2023/04/22 00:56:38;;;;;;;3.85;2.00;;;;;;;;;;5043375;28;20029;-58
2023/04/22 00:59:04;;;;;;;2.90;1.73;;;;;;;;;;5034149;28;20041;-58
2023/04/22 01:01:30;;;;;;;1.77;1.58;;;;;;;;;;5039618;28;20049;-58
2023/04/22 01:03:58;;;;;;;2.72;1.98;;;;;;;;;;5034359;28;20411;-58
2023/04/22 01:06:26;;;;;;;2.60;1.75;;;;;;;;;;5037437;28;20037;-58
2023/04/22 01:08:53;;;;;;;2.50;2.00;;;;;;;;;;5032049;28;20041;-58
2023/04/22 01:11:19;;;;;;;2.53;1.80;;;;;;;;;;5036153;28;20045;-58
2023/04/22 01:13:45;;;;;;;3.08;1.83;;;;;;;;;;5033748;28;20048;-58
2023/04/22 01:16:12;;;;;;;2.90;2.00;;;;;;;;;;5032543;28;20029;-58
2023/04/22 01:18:38;;;;;;;3.28;1.90;;;;;;;;;;5039551;28;20036;-59
2023/04/22 01:21:05;;;;;;;2.45;2.00;;;;;;;;;;5036073;28;20037;-58
2023/04/22 01:23:32;;;;;;;2.70;2.00;;;;;;;;;;5038294;28;20025;-57
2023/04/22 01:25:59;;;;;;;2.78;2.00;;;;;;;;;;5039619;28;20034;-58
2023/04/22 01:28:25;;;;;;;3.10;2.33;;;;;;;;;;5037961;28;20045;-58
2023/04/22 01:30:52;;;;;;;3.17;2.00;;;;;;;;;;5032610;28;20033;-58
2023/04/22 01:33:18;;;;;;;2.22;2.03;;;;;;;;;;5040556;28;20053;-58
2023/04/22 01:35:44;;;;;;;3.25;2.55;;;;;;;;;;5040581;28;20085;-58
2023/04/22 01:38:12;;;;;;;3.15;2.35;;;;;;;;;;5038393;28;20534;-59
2023/04/22 01:40:38;;;;;;;3.28;2.70;;;;;;;;;;5023429;28;20037;-58
2023/04/22 01:43:05;;;;;;;4.60;3.28;;;;;;;;;;5039542;28;20498;-58
2023/04/22 01:45:32;;;;;;;4.72;3.13;;;;;;;;;;5038535;28;20045;-58
2023/04/22 01:47:59;;;;;;;5.93;3.08;;;;;;;;;;5042194;28;20040;-58
2023/04/22 01:50:25;;;;;;;4.55;3.40;;;;;;;;;;5044555;28;20036;-57
2023/04/22 01:52:51;;;;;;;5.97;3.25;;;;;;;;;;5044068;28;20043;-58
2023/04/22 01:55:17;;;;;;;7.88;4.20;;;;;;;;;;5037304;28;20036;-58
2023/04/22 01:57:43;;;;;;;6.57;3.97;;;;;;;;;;5021357;28;20048;-58
2023/04/22 02:00:10;;;;;;;7.30;4.35;;;;;;;;;;5035871;28;20037;-58
2023/04/22 02:02:39;;;;;;;7.72;4.55;;;;;;;;;;5036814;28;20052;-57
2023/04/22 02:05:06;;;;;;;6.70;4.60;;;;;;;;;;5036994;28;20490;-57
2023/04/22 02:07:32;;;;;;;7.47;4.18;;;;;;;;;;5035591;28;20056;-58
2023/04/22 02:10:00;;;;;;;5.72;4.40;;;;;;;;;;5038221;28;20486;-58
2023/04/22 02:12:26;;;;;;;7.65;4.20;;;;;;;;;;5042137;28;20033;-57
2023/04/22 02:14:52;;;;;;;6.22;4.70;;;;;;;;;;5040916;28;20037;-57
2023/04/22 02:17:21;;;;;;;7.53;4.68;;;;;;;;;;5029811;28;20498;-57
2023/04/22 02:19:47;;;;;;;7.53;4.60;;;;;;;;;;5035665;28;20039;-59
2023/04/22 02:22:13;;;;;;;6.57;4.88;;;;;;;;;;5039646;28;20041;-59
2023/04/22 02:24:39;;;;;;;7.18;5.28;;;;;;;;;;5040784;28;20041;-59
2023/04/22 02:27:07;;;;;;;8.68;5.90;;;;;;;;;;5041679;28;20052;-57
2023/04/22 02:29:33;;;;;;;9.00;6.38;;;;;;;;;;5032960;28;20056;-58
2023/04/22 02:32:00;;;;;;;7.90;6.53;;;;;;;;;;5037863;28;20052;-58
2023/04/22 02:34:28;;;;;;;8.25;6.05;;;;;;;;;;5034977;28;20046;-57
2023/04/22 02:36:54;;;;;;;9.02;6.60;;;;;;;;;;5036050;28;20033;-57
2023/04/22 02:39:20;;;;;;;8.75;6.25;;;;;;;;;;5034520;28;20032;-57
2023/04/22 02:41:46;;;;;;;8.13;5.97;;;;;;;;;;5040389;28;20060;-58
2023/04/22 02:44:12;;;;;;;10.73;6.75;;;;;;;;;;5041410;28;20033;-57
2023/04/22 02:46:38;;;;;;;10.27;6.78;;;;;;;;;;5035581;28;20049;-57
2023/04/22 02:49:04;;;;;;;8.70;6.35;;;;;;;;;;5035407;28;20631;-57
2023/04/22 02:51:31;;;;;;;8.63;6.32;;;;;;;;;;5040852;28;20044;-57
2023/04/22 02:53:59;;;;;;;8.88;6.00;;;;;;;;;;5035516;28;20041;-57
2023/04/22 02:56:26;;;;;;;7.75;5.82;;;;;;;;;;5034339;28;20495;-57
2023/04/22 02:58:52;;;;;;;7.57;6.10;;;;;;;;;;5020955;28;20044;-57
2023/04/22 03:01:18;;;;;;;8.15;6.13;;;;;;;;;;5038513;28;20032;-59
2023/04/22 03:03:45;;;;;;;9.48;5.95;;;;;;;;;;5031758;28;20387;-57
2023/04/22 03:06:17;;;;;;;7.30;5.30;;;;;;;;;;5032547;28;20117;-58
2023/04/22 03:08:43;;;;;;;8.35;5.80;;;;;;;;;;5036302;28;20046;-57
2023/04/22 03:11:10;;;;;;;9.32;6.03;;;;;;;;;;5016613;28;20041;-58
2023/04/22 03:13:36;;;;;;;9.20;5.47;;;;;;;;;;5034759;28;20059;-58
2023/04/22 03:16:02;;;;;;;7.57;5.43;;;;;;;;;;5035334;28;20045;-58
2023/04/22 03:18:28;;;;;;;6.50;5.10;;;;;;;;;;5038360;28;20042;-58
2023/04/22 03:20:54;;;;;;;6.10;4.97;;;;;;;;;;5040817;28;20391;-58
2023/04/22 03:23:20;;;;;;;6.47;4.93;;;;;;;;;;5039437;28;20040;-58
2023/04/22 03:25:47;;;;;;;6.80;4.60;;;;;;;;;;5040106;28;20036;-58
2023/04/22 03:28:13;;;;;;;6.22;4.32;;;;;;;;;;5040501;28;20049;-58
2023/04/22 03:30:40;;;;;;;5.82;4.30;;;;;;;;;;5040454;28;20028;-58
2023/04/22 03:33:06;;;;;;;5.40;4.00;;;;;;;;;;5042729;28;20053;-58
2023/04/22 03:36:01;;;;;;;5.25;4.03;;;;;;;;;;5040070;28;20499;-56
2023/04/22 03:38:28;;;;;;;5.00;3.88;;;;;;;;;;5037440;28;20033;-57
2023/04/22 03:40:54;;;;;;;7.35;3.83;;;;;;;;;;5036268;28;20545;-57
2023/04/22 03:43:49;;;;;;;5.82;3.72;;;;;;;;;;5045987;28;20072;-58
2023/04/22 03:46:16;;;;;;;5.97;4.00;;;;;;;;;;5036619;28;20049;-58
2023/04/22 03:48:50;;;;;;;6.28;3.70;;;;;;;;;;5044607;28;20056;-58
2023/04/22 03:51:25;;;;;;;6.00;3.47;;;;;;;;;;5040780;28;20025;-58
2023/04/22 03:53:51;;;;;;;4.28;3.40;;;;;;;;;;5034147;28;20033;-59
2023/04/22 03:56:20;;;;;;;4.03;3.28;;;;;;;;;;5039391;28;20053;-58
2023/04/22 03:58:48;;;;;;;3.88;2.85;;;;;;;;;;5039299;28;20041;-57
2023/04/22 04:01:15;;;;;;;3.47;2.72;;;;;;;;;;5039690;28;20337;-58
2023/04/22 04:03:47;;;;;;;4.85;2.95;;;;;;;;;;5039873;28;20033;-58
2023/04/22 04:06:14;;;;;;;3.40;2.58;;;;;;;;;;5035446;28;20029;-58
2023/04/22 04:08:41;;;;;;;3.42;2.95;;;;;;;;;;5015174;28;20049;-58
2023/04/22 04:11:09;;;;;;;3.88;3.30;;;;;;;;;;5033920;28;20041;-58
2023/04/22 04:13:35;;;;;;;3.53;3.03;;;;;;;;;;5034059;28;20049;-58
2023/04/22 04:16:13;;;;;;;5.28;2.85;;;;;;;;;;5036834;28;20041;-58
2023/04/22 04:18:42;;;;;;;6.25;3.95;;;;;;;;;;5039376;28;20402;-58
2023/04/22 04:21:09;;;;;;;3.50;2.60;;;;;;;;;;5039853;28;20033;-58
2023/04/22 04:23:39;;;;;;;4.07;2.63;;;;;;;;;;5039395;28;20410;-58
2023/04/22 04:26:07;;;;;;;3.25;2.80;;;;;;;;;;5043500;28;20037;-58
2023/04/22 04:28:36;;;;;;;5.18;3.17;;;;;;;;;;5042094;28;20391;-58
2023/04/22 04:31:02;;;;;;;3.25;2.80;;;;;;;;;;5040363;28;22136;-58
2023/04/22 04:33:31;;;;;;;3.38;2.80;;;;;;;;;;5046572;28;20033;-58
2023/04/22 04:35:58;;;;;;;4.40;2.90;;;;;;;;;;5035620;28;20048;-57
2023/04/22 04:38:29;;;;;;;3.15;2.70;;;;;;;;;;5032169;28;20582;-58
2023/04/22 04:40:55;;;;;;;3.75;3.17;;;;;;;;;;5040564;28;20064;-58
2023/04/22 04:43:24;;;;;;;3.58;2.85;;;;;;;;;;5036665;28;20038;-58
2023/04/22 04:45:57;;;;;;;5.15;2.72;;;;;;;;;;5047211;28;20415;-58
2023/04/22 04:48:34;;;;;;;3.53;2.58;;;;;;;;;;5023807;28;20550;-58
2023/04/22 04:51:05;;;;;;;4.30;3.00;;;;;;;;;;5037734;28;20036;-59
2023/04/22 04:53:35;;;;;;;12.57;6.18;;;;;;;;;;5038952;28;20041;-58
2023/04/22 04:56:01;;;;;;;7.63;5.18;;;;;;;;;;5034158;28;20060;-58
2023/04/22 04:58:29;;;;;;;7.70;4.50;;;;;;;;;;5037641;28;20438;-59
2023/04/22 05:01:09;;;;;;;5.43;3.67;;;;;;;;;;5038157;28;20046;-58
2023/04/22 05:03:35;;;;;;;6.40;3.50;;;;;;;;;;5039538;28;20518;-58
2023/04/22 05:06:03;;;;;;;3.78;2.90;;;;;;;;;;5037475;28;20682;-58
2023/04/22 05:08:29;;;;;;;4.55;2.92;;;;;;;;;;5037628;28;20129;-57
2023/04/22 05:11:02;;;;;;;4.22;3.20;;;;;;;;;;5035345;28;20514;-58
2023/04/22 05:13:28;;;;;;;3.53;3.10;;;;;;;;;;5036455;28;20045;-57
2023/04/22 05:15:55;;;;;;;4.40;3.28;;;;;;;;;;5018966;28;20037;-57
2023/04/22 05:18:22;;;;;;;5.85;3.50;;;;;;;;;;5030473;28;20499;-58
2023/04/22 05:20:48;;;;;;;3.20;2.90;;;;;;;;;;5033484;28;20045;-57
2023/04/22 05:23:18;;;;;;;;;;;;;;;;;;5035400;28;20040;-57
2023/04/22 05:25:44;;;;;;;5.57;4.07;;;;;;;;;;5036566;28;19913;-58
2023/04/22 05:28:12;;;;;;;5.68;4.43;;;;;;;;;;5041249;28;20049;-57
2023/04/22 05:30:45;;;;;;;7.85;4.38;;;;;;;;;;5033249;28;20407;-57
2023/04/22 05:33:11;;;;;;;6.35;4.20;;;;;;;;;;5036090;28;20435;-57
2023/04/22 05:35:38;;;;;;;5.97;4.20;;;;;;;;;;5038219;28;20081;-57
2023/04/22 05:38:04;;;;;;;6.93;4.18;;;;;;;;;;5035906;28;20434;-57
2023/04/22 05:40:32;;;;;;;6.45;4.93;;;;;;;;;;5035822;28;20053;-57
2023/04/22 05:42:59;;;;;;;8.27;4.85;;;;;;;;;;5040256;28;20045;-57
2023/04/22 05:45:25;;;;;;;9.48;5.88;;;;;;;;;;5035719;28;20541;-57
2023/04/22 05:47:52;;;;;;;9.10;6.68;;;;;;;;;;5022182;28;20040;-58
2023/04/22 05:50:18;;;;;;;9.25;6.30;;;;;;;;;;5030930;28;20044;-58
2023/04/22 05:52:53;;;;;;;10.80;6.60;;;;;;;;;;5040493;28;20037;-58
2023/04/22 05:55:20;;;;;;;11.88;7.43;;;;;;;;;;5037956;28;20041;-58
2023/04/22 05:57:47;;;;;;;15.13;8.80;;;;;;;;;;5039611;28;20535;-59
2023/04/22 06:00:29;;;;;;;17.25;10.82;;;;;;;;;;5032822;28;20053;-58
2023/04/22 06:03:12;;;;;;;21.00;11.65;;;;;;;;;;5021404;28;20033;-57
2023/04/22 06:05:40;;;;;;;20.48;12.70;;;;;;;;;;5035309;28;20040;-57
2023/04/22 06:08:06;;;;;;;24.35;12.93;;;;;;;;;;5031807;28;20053;-57
2023/04/22 06:10:33;;;;;;;26.67;14.98;;;;;;;;;;5033591;28;20033;-57
2023/04/22 06:13:00;;;;;;;34.50;17.58;;;;;;;;;;5034818;28;20045;-58
2023/04/22 06:15:26;;;;;;;29.73;15.30;;;;;;;;;;5036628;28;20411;-58
2023/04/22 06:17:52;;;;;;;26.83;15.35;;;;;;;;;;5037586;28;20045;-56
2023/04/22 06:20:19;;;;;;;32.97;18.40;;;;;;;;;;5036522;28;20053;-58
2023/04/22 06:22:45;;;;;;;20.27;12.40;;;;;;;;;;5040987;28;20197;-58
2023/04/22 06:25:11;;;;;;;18.23;11.05;;;;;;;;;;5037046;28;20033;-57
2023/04/22 06:27:37;;;;;;;17.75;10.75;;;;;;;;;;5030867;28;20044;-58
2023/04/22 06:30:05;;;;;;;15.55;10.35;;;;;;;;;;5035415;28;20036;-58
2023/04/22 06:32:31;;;;;;;14.73;9.73;;;;;;;;;;5042032;28;20029;-57
2023/04/22 06:34:57;;;;;;;14.02;9.00;;;;;;;;;;5040106;28;20049;-57
2023/04/22 06:37:25;;;;;;;13.73;9.10;;;;;;;;;;5040028;28;20039;-57
2023/04/22 06:39:52;;;;;;;17.95;10.85;;;;;;;;;;5035936;28;20548;-57
2023/04/22 06:42:36;;;;;;;22.52;13.00;;;;;;;;;;5038577;28;20458;-57
2023/04/22 06:45:21;;;;;;;18.85;10.75;;;;;;;;;;5037747;28;20033;-57
2023/04/22 06:47:57;;;;;;;14.52;8.90;;;;;;;;;;5040890;28;20048;-57
2023/04/22 06:50:30;;;;;;;14.10;7.18;;;;;;;;;;5037386;28;20030;-58
2023/04/22 06:52:57;;;;;;;9.73;5.97;;;;;;;;;;5033550;28;20037;-58
2023/04/22 06:55:24;;;;;;;9.93;5.57;;;;;;;;;;5042970;28;20051;-58
2023/04/22 06:57:50;;;;;;;8.35;5.45;;;;;;;;;;5042759;28;20036;-57
2023/04/22 07:00:17;;;;;;;9.55;5.40;;;;;;;;;;5038208;28;20060;-58
2023/04/22 07:02:43;;;;;;;7.43;5.18;;;;;;;;;;5033683;28;20052;-58
2023/04/22 07:05:09;;;;;;;7.13;5.20;;;;;;;;;;5035806;28;20668;-58
2023/04/22 07:07:35;;;;;;;8.23;5.70;;;;;;;;;;5040503;28;20044;-58
2023/04/22 07:10:01;;;;;;;8.18;5.00;;;;;;;;;;5041179;28;20045;-58
2023/04/22 07:12:35;;;;;;;5.90;4.20;;;;;;;;;;5042558;28;20025;-60
2023/04/22 07:15:01;;;;;;;6.32;4.65;;;;;;;;;;5036833;28;20045;-58
2023/04/22 07:17:27;;;;;;;5.70;4.57;;;;;;;;;;5034251;28;20041;-59
2023/04/22 07:19:53;;;;;;;6.55;5.07;;;;;;;;;;5035032;28;20049;-58
2023/04/22 07:22:19;;;;;;;6.45;4.70;;;;;;;;;;5045398;28;20041;-58
2023/04/22 07:24:46;;;;;;;8.10;5.60;;;;;;;;;;5046295;28;20422;-58
2023/04/22 07:27:12;;;;;;;6.65;5.05;;;;;;;;;;5041418;28;20051;-58
2023/04/22 07:29:38;;;;;;;6.50;4.80;;;;;;;;;;5042836;28;20041;-57
2023/04/22 07:32:05;;;;;;;7.97;5.03;;;;;;;;;;5043020;28;20033;-57
2023/04/22 07:34:31;;;;;;;9.35;5.47;;;;;;;;;;5044138;28;20041;-57
2023/04/22 07:36:57;;;;;;;9.07;4.47;;;;;;;;;;5041731;28;20410;-57
2023/04/22 07:39:24;;;;;;;7.20;4.60;;;;;;;;;;5043253;28;20032;-57
2023/04/22 07:41:50;;;;;;;8.13;4.65;;;;;;;;;;5041979;28;20434;-57
2023/04/22 07:44:20;;;;;;;7.85;4.50;;;;;;;;;;5039319;28;20037;-58
2023/04/22 07:46:47;;;;;;;6.15;4.43;;;;;;;;;;5040608;28;20252;-58
2023/04/22 07:49:14;;;;;;;6.13;4.30;;;;;;;;;;5039819;28;20036;-57
2023/04/22 07:51:40;;;;;;;6.75;4.32;;;;;;;;;;5034318;28;20028;-58
2023/04/22 07:54:06;;;;;;;6.45;4.70;;;;;;;;;;5046461;28;20078;-57
2023/04/22 07:56:33;;;;;;;6.60;4.50;;;;;;;;;;5040330;28;20036;-58
2023/04/22 07:58:59;;;;;;;6.43;4.40;;;;;;;;;;5042193;28;20056;-59
2023/04/22 08:01:25;;;;;;;8.32;4.70;;;;;;;;;;5038041;28;20044;-59
2023/04/22 08:03:51;;;;;;;6.10;4.68;;;;;;;;;;5044934;28;20032;-56
2023/04/22 08:06:17;;;;;;;8.25;5.13;;;;;;;;;;5035261;28;20431;-58
2023/04/22 08:08:44;;;;;;;7.07;5.47;;;;;;;;;;5029978;28;20045;-58
2023/04/22 08:11:10;;;;;;;6.55;5.15;;;;;;;;;;5037661;28;20056;-59
2023/04/22 08:13:36;;;;;;;7.28;6.43;;;;;;;;;;5034954;28;20029;-59
2023/04/22 08:16:02;;;;;;;9.27;7.57;;;;;;;;;;5036260;28;20049;-57
2023/04/22 08:18:28;;;;;;;7.57;6.40;;;;;;;;;;5041340;28;20060;-57
2023/04/22 08:20:55;;;;;;;6.65;4.93;;;;;;;;;;5036204;28;20064;-57
2023/04/22 08:23:21;;;;;;;6.28;4.07;;;;;;;;;;5037566;28;20037;-58
2023/04/22 08:25:48;;;;;;;4.55;3.95;;;;;;;;;;5039754;28;20064;-57
2023/04/22 08:28:14;;;;;;;5.55;3.90;;;;;;;;;;5037793;28;20394;-58
2023/04/22 08:30:40;;;;;;;6.15;3.60;;;;;;;;;;5041233;28;20052;-58
2023/04/22 08:33:06;;;;;;;6.45;3.88;;;;;;;;;;5044251;28;20044;-58
2023/04/22 08:35:35;;;;;;;5.15;4.07;;;;;;;;;;5040938;28;20052;-58
2023/04/22 08:38:02;;;;;;;5.45;3.95;;;;;;;;;;5032150;28;20037;-58
2023/04/22 08:40:28;;;;;;;4.18;3.70;;;;;;;;;;5041934;28;20047;-58
2023/04/22 08:42:54;;;;;;;4.38;3.80;;;;;;;;;;5039881;28;20105;-58
2023/04/22 08:45:21;;;;;;;8.18;4.15;;;;;;;;;;5039660;28;20037;-57
2023/04/22 08:47:48;;;;;;;9.18;4.43;;;;;;;;;;5035264;28;20029;-59
2023/04/22 08:50:15;;;;;;;9.10;4.43;;;;;;;;;;5038230;28;20442;-58
2023/04/22 08:52:41;;;;;;;11.65;4.68;;;;;;;;;;5041933;28;20033;-57
2023/04/22 08:55:08;;;;;;;10.32;3.85;;;;;;;;;;5038451;28;20513;-57
2023/04/22 08:57:38;;;;;;;9.73;4.20;;;;;;;;;;5039035;28;20037;-59
2023/04/22 09:00:07;;;;;;;6.78;4.20;;;;;;;;;;5039450;28;20060;-57
2023/04/22 09:02:37;;;;;;;9.90;4.25;;;;;;;;;;5035217;28;20057;-58
2023/04/22 09:05:05;;;;;;;8.27;4.68;;;;;;;;;;5019075;28;20045;-59
2023/04/22 09:07:32;;;;;;;11.90;4.00;;;;;;;;;;5031027;28;20411;-59
2023/04/22 09:09:58;;;;;;;8.68;4.10;;;;;;;;;;5033105;28;20052;-58
2023/04/22 09:12:24;;;;;;;9.20;4.35;;;;;;;;;;5033032;28;20037;-57
2023/04/22 09:14:51;;;;;;;7.88;5.53;;;;;;;;;;5034628;28;20439;-58
2023/04/22 09:17:31;;;;;;;6.85;4.82;;;;;;;;;;5034248;28;20411;-58
2023/04/22 09:19:59;;;;;;;9.05;5.05;;;;;;;;;;5034073;28;20041;-58
2023/04/22 09:22:27;;;;;;;10.82;5.32;;;;;;;;;;5033342;28;20128;-58
2023/04/22 09:24:53;;;;;;;6.13;4.50;;;;;;;;;;5035984;28;20120;-58
2023/04/22 09:27:23;;;;;;;8.77;4.65;;;;;;;;;;5037695;28;20049;-58
2023/04/22 09:29:51;;;;;;;8.10;4.80;;;;;;;;;;5040573;28;20410;-58
2023/04/22 09:32:17;;;;;;;7.65;4.68;;;;;;;;;;5037521;28;20048;-58
2023/04/22 09:34:52;;;;;;;6.78;4.00;;;;;;;;;;5038019;28;20033;-58
2023/04/22 09:37:20;;;;;;;5.47;4.63;;;;;;;;;;5034679;28;20034;-59
2023/04/22 09:39:50;;;;;;;11.02;4.38;;;;;;;;;;5032605;28;20037;-58
2023/04/22 09:42:17;;;;;;;8.30;4.00;;;;;;;;;;5035876;28;20536;-58
2023/04/22 09:44:46;;;;;;;8.90;4.18;;;;;;;;;;5040028;28;20032;-58
2023/04/22 09:47:12;;;;;;;7.60;4.07;;;;;;;;;;5037329;28;20029;-58
2023/04/22 09:49:39;;;;;;;6.43;4.03;;;;;;;;;;5042460;28;20295;-60
2023/04/22 09:52:06;;;;;;;10.05;4.68;;;;;;;;;;5036779;28;20037;-57
2023/04/22 09:54:35;;;;;;;6.97;4.65;;;;;;;;;;5036427;28;20045;-58
2023/04/22 09:57:02;;;;;;;10.73;4.20;;;;;;;;;;5038991;28;20056;-58
2023/04/22 09:59:29;;;;;;;6.55;3.40;;;;;;;;;;5038231;28;20036;-60
2023/04/22 10:01:59;;;;;;;4.50;3.70;;;;;;;;;;5041963;28;20048;-59
2023/04/22 10:04:26;;;;;;;3.92;3.33;;;;;;;;;;5038541;28;20063;-59
2023/04/22 10:06:53;;;;;;;5.53;3.58;;;;;;;;;;5036935;28;20033;-59
2023/04/22 10:09:21;;;;;;;3.70;3.30;;;;;;;;;;5030758;28;20041;-59
2023/04/22 10:11:50;;;;;;;6.03;3.40;;;;;;;;;;5037929;28;20037;-59
2023/04/22 10:14:16;;;;;;;8.82;3.33;;;;;;;;;;5038078;28;20032;-59
2023/04/22 10:16:45;;;;;;;5.20;3.50;;;;;;;;;;5037092;28;20037;-59
2023/04/22 10:19:22;;;;;;;9.05;3.90;;;;;;;;;;5035528;28;20474;-59
2023/04/22 10:21:54;;;;;;;5.18;3.42;;;;;;;;;;5035302;28;20033;-59
2023/04/22 10:24:24;;;;;;;4.60;3.30;;;;;;;;;;5035637;28;20044;-59
2023/04/22 10:26:56;;;;;;;4.28;3.33;;;;;;;;;;5040838;28;20041;-60
2023/04/22 10:29:23;;;;;;;4.68;3.50;;;;;;;;;;5044100;28;20060;-60
2023/04/22 10:31:54;;;;;;;4.90;3.85;;;;;;;;;;5039485;28;20025;-59
2023/04/22 10:34:20;;;;;;;3.80;3.45;;;;;;;;;;5043755;28;20045;-57
2023/04/22 10:36:54;;;;;;;6.20;4.00;;;;;;;;;;5045404;28;20506;-58
2023/04/22 10:39:20;;;;;;;5.25;3.83;;;;;;;;;;5038111;28;20059;-58
2023/04/22 10:41:52;;;;;;;5.43;3.80;;;;;;;;;;5035456;28;20056;-58
2023/04/22 10:44:20;;;;;;;4.88;3.67;;;;;;;;;;5035793;28;20407;-58
2023/04/22 10:46:49;;;;;;;6.13;4.00;;;;;;;;;;5038949;28;20124;-58
2023/04/22 10:49:20;;;;;;;5.63;3.88;;;;;;;;;;5035915;28;20053;-59
2023/04/22 10:51:51;;;;;;;4.53;3.50;;;;;;;;;;5039588;28;20037;-58
2023/04/22 10:54:35;;;;;;;5.90;3.25;;;;;;;;;;5040946;28;20415;-59
2023/04/22 10:57:04;;;;;;;4.25;3.50;;;;;;;;;;5038341;28;20045;-58
2023/04/22 10:59:32;;;;;;;5.15;2.90;;;;;;;;;;5037536;28;20448;-59
2023/04/22 11:02:04;;;;;;;6.72;2.65;;;;;;;;;;5039739;28;20033;-59
2023/04/22 11:04:31;;;;;;;4.35;3.17;;;;;;;;;;5038786;28;20399;-59
2023/04/22 11:07:19;;;;;;;4.45;2.95;;;;;;;;;;5037220;28;20411;-59
2023/04/22 11:09:50;;;;;;;5.05;3.03;;;;;;;;;;5041087;28;20033;-59
2023/04/22 11:12:38;;;;;;;3.60;2.63;;;;;;;;;;5038399;28;20040;-59
2023/04/22 11:15:05;;;;;;;5.00;3.35;;;;;;;;;;5040256;28;20040;-59
2023/04/22 11:17:32;;;;;;;4.70;3.30;;;;;;;;;;5039415;28;20041;-59
2023/04/22 11:20:00;;;;;;;4.57;3.00;;;;;;;;;;5046589;28;20049;-59
2023/04/22 11:22:27;;;;;;;4.03;3.15;;;;;;;;;;5040980;28;20052;-59
2023/04/22 11:24:56;;;;;;;7.35;2.85;;;;;;;;;;5042541;28;20068;-59
2023/04/22 11:27:26;;;;;;;3.85;2.92;;;;;;;;;;5040866;28;20518;-59
2023/04/22 11:30:13;;;;;;;4.45;3.15;;;;;;;;;;5042621;28;20045;-58
2023/04/22 11:32:41;;;;;;;5.43;3.22;;;;;;;;;;5033765;28;20045;-59
2023/04/22 11:35:10;;;;;;;4.55;3.10;;;;;;;;;;5035906;28;20033;-59
2023/04/22 11:37:43;;;;;;;5.95;3.40;;;;;;;;;;5040915;28;20021;-59
2023/04/22 11:40:12;;;;;;;3.50;2.85;;;;;;;;;;5034934;28;20579;-58
2023/04/22 11:42:39;;;;;;;5.55;3.00;;;;;;;;;;5037772;28;20055;-59
2023/04/22 11:45:06;;;;;;;4.82;2.38;;;;;;;;;;5037436;28;20060;-59
2023/04/22 11:47:33;;;;;;;5.05;3.03;;;;;;;;;;5040425;28;20507;-58
2023/04/22 11:50:03;;;;;;;6.30;2.92;;;;;;;;;;5037529;28;20541;-59
2023/04/22 11:53:03;;;;;;;6.00;2.75;;;;;;;;;;5034945;28;20045;-59
2023/04/22 11:55:37;;;;;;;5.05;3.30;;;;;;;;;;5032921;28;20447;-60
2023/04/22 11:58:13;;;;;;;4.40;2.95;;;;;;;;;;5037167;28;20507;-60
2023/04/22 12:00:44;;;;;;;4.82;3.03;;;;;;;;;;5039706;28;20053;-59
2023/04/22 12:03:12;;;;;;;5.25;2.80;;;;;;;;;;5034952;28;20037;-60
2023/04/22 12:05:39;;;;;;;6.07;2.50;;;;;;;;;;5036042;28;20060;-60
2023/04/22 12:08:26;;;;;;;5.60;2.67;;;;;;;;;;5036090;28;20434;-59
2023/04/22 12:10:58;;;;;;;9.88;2.65;;;;;;;;;;5037183;28;20037;-59
2023/04/22 12:13:25;;;;;;;5.47;2.53;;;;;;;;;;5046240;28;20040;-59
2023/04/22 12:15:59;;;;;;;3.63;2.67;;;;;;;;;;5039769;28;20503;-60
2023/04/22 12:18:35;;;;;;;6.55;3.50;;;;;;;;;;5039150;28;20037;-59
2023/04/22 12:21:08;;;;;;;6.28;3.00;;;;;;;;;;4998166;28;1104107;-59
2023/04/22 12:23:47;;;;;;;6.65;3.30;;;;;;;;;;5046294;28;20036;-59
2023/04/22 12:26:18;;;;;;;4.40;2.90;;;;;;;;;;5035076;28;20048;-60
2023/04/22 12:28:45;;;;;;;4.38;2.72;;;;;;;;;;5038521;28;20067;-60
2023/04/22 12:31:13;;;;;;;5.15;3.08;;;;;;;;;;5041144;28;20037;-59
2023/04/22 12:33:40;;;;;;;5.18;2.90;;;;;;;;;;5045616;28;20060;-59
2023/04/22 12:36:06;;;;;;;5.05;2.63;;;;;;;;;;5042666;28;20053;-59
2023/04/22 12:38:32;;;;;;;5.80;2.72;;;;;;;;;;5040866;28;20403;-59
2023/04/22 12:40:59;;;;;;;4.85;2.80;;;;;;;;;;5039871;28;20068;-59
2023/04/22 12:43:25;;;;;;;3.75;2.83;;;;;;;;;;5038357;28;20053;-59
2023/04/22 12:45:51;;;;;;;3.90;2.83;;;;;;;;;;5042518;28;20040;-59
2023/04/22 12:48:17;;;;;;;8.07;4.50;;;;;;;;;;5034122;28;20057;-59
2023/04/22 12:50:43;;;;;;;5.03;3.33;;;;;;;;;;5039454;28;20045;-59
2023/04/22 12:53:09;;;;;;;5.45;3.83;;;;;;;;;;5034049;28;20033;-58
2023/04/22 12:55:35;;;;;;;5.68;2.95;;;;;;;;;;5037408;28;20048;-59
2023/04/22 12:58:03;;;;;;;6.32;3.10;;;;;;;;;;5038005;28;20052;-59
2023/04/22 13:00:29;;;;;;;6.47;3.05;;;;;;;;;;5034314;28;20483;-59
2023/04/22 13:02:55;;;;;;;8.85;3.33;;;;;;;;;;5037900;28;20038;-59
2023/04/22 13:05:22;;;;;;;5.00;3.08;;;;;;;;;;5039349;28;20459;-59
2023/04/22 13:07:48;;;;;;;7.93;4.65;;;;;;;;;;5041323;28;20045;-59
2023/04/22 13:10:15;;;;;;;7.05;3.60;;;;;;;;;;5042530;28;20057;-59
2023/04/22 13:12:42;;;;;;;5.45;3.53;;;;;;;;;;5043334;28;20033;-59
2023/04/22 13:15:10;;;;;;;5.45;2.83;;;;;;;;;;5043535;28;20065;-60
2023/04/22 13:17:37;;;;;;;5.93;3.53;;;;;;;;;;5034879;28;20040;-58
2023/04/22 13:20:05;;;;;;;5.85;3.85;;;;;;;;;;5036280;28;20060;-59
2023/04/22 13:22:32;;;;;;;6.07;3.60;;;;;;;;;;5034982;28;20438;-59
2023/04/22 13:24:58;;;;;;;8.85;3.40;;;;;;;;;;5034460;28;20048;-59
2023/04/22 13:27:25;;;;;;;4.25;2.92;;;;;;;;;;5043678;28;20037;-59
2023/04/22 13:29:51;;;;;;;9.25;3.40;;;;;;;;;;5041960;28;20053;-60
2023/04/22 13:32:17;;;;;;;5.55;3.45;;;;;;;;;;5041421;28;20046;-60
2023/04/22 13:34:44;;;;;;;5.90;2.83;;;;;;;;;;5038622;28;20038;-59
2023/04/22 13:37:13;;;;;;;7.53;4.15;;;;;;;;;;5037271;28;20033;-60
2023/04/22 13:39:39;;;;;;;7.88;4.05;;;;;;;;;;5038858;28;20072;-60
2023/04/22 13:42:06;;;;;;;6.28;3.78;;;;;;;;;;5036596;28;20398;-59
2023/04/22 13:44:32;;;;;;;4.82;3.42;;;;;;;;;;5040732;28;20029;-59
2023/04/22 13:46:58;;;;;;;7.57;3.20;;;;;;;;;;5039529;28;20141;-59
2023/04/22 13:49:25;;;;;;;9.43;3.80;;;;;;;;;;5039536;28;20030;-59
2023/04/22 13:51:52;;;;;;;3.83;3.20;;;;;;;;;;5032393;28;20045;-59
2023/04/22 13:54:18;;;;;;;7.43;3.33;;;;;;;;;;5035959;28;20521;-60
2023/04/22 13:56:45;;;;;;;5.25;3.58;;;;;;;;;;5031531;28;20046;-59
2023/04/22 13:59:11;;;;;;;7.57;3.30;;;;;;;;;;5037382;28;20044;-58
2023/04/22 14:01:38;;;;;;;6.30;4.10;;;;;;;;;;5040639;28;20044;-59
2023/04/22 14:04:04;;;;;;;5.28;3.80;;;;;;;;;;5032319;28;20033;-59
2023/04/22 14:06:31;;;;;;;9.45;4.63;;;;;;;;;;5038278;28;20053;-59
2023/04/22 14:08:57;;;;;;;15.02;8.88;;;;;;;;;;5032480;28;20087;-59
2023/04/22 14:11:23;;;;;;;11.70;6.18;;;;;;;;;;5034497;28;20491;-59
2023/04/22 14:13:50;;;;;;;6.82;3.90;;;;;;;;;;5040493;28;20426;-60
2023/04/22 14:16:17;;;;;;;4.53;3.78;;;;;;;;;;5035682;28;20511;-60
2023/04/22 14:18:44;;;;;;;8.65;3.83;;;;;;;;;;5040095;28;20037;-59
2023/04/22 14:21:11;;;;;;;4.53;3.40;;;;;;;;;;5036564;28;20072;-59
2023/04/22 14:23:38;;;;;;;7.07;3.60;;;;;;;;;;5045150;28;20036;-59
2023/04/22 14:26:10;;;;;;;6.30;3.42;;;;;;;;;;5039525;28;20040;-58
2023/04/22 14:28:38;;;;;;;7.57;3.78;;;;;;;;;;5035621;28;20052;-58
2023/04/22 14:31:05;;;;;;;26.60;10.50;;;;;;;;;;5037614;28;20044;-58
2023/04/22 14:33:31;;;;;;;23.08;9.48;;;;;;;;;;5040283;28;20025;-58
2023/04/22 14:35:57;;;;;;;13.25;5.78;;;;;;;;;;5036960;28;20041;-58
2023/04/22 14:38:23;;;;;;;12.82;5.82;;;;;;;;;;5039172;28;20423;-58
2023/04/22 14:40:50;;;;;;;8.52;4.50;;;;;;;;;;5038916;28;20067;-60
2023/04/22 14:43:17;;;;;;;7.43;4.28;;;;;;;;;;5040538;28;20036;-59
2023/04/22 14:45:45;;;;;;;7.10;3.88;;;;;;;;;;5037245;28;20029;-59